sensor_id;sensor_type;location;lat;lon;timestamp;temperature;humidity
53114;DHT22;39009;53.166;6.232;2022-07-23T00:01:34;13.50;99.90
53114;DHT22;39009;53.166;6.232;2022-07-23T00:04:00;13.50;99.90
53114;DHT22;39009;53.166;6.232;2022-07-23T00:06:26;13.50;99.90
53114;DHT22;39009;53.166;6.232;2022-07-23T00:08:51;13.50;99.90
53114;DHT22;39009;53.166;6.232;2022-07-23T00:11:17;13.60;99.90
53114;DHT22;39009;53.166;6.232;2022-07-23T00:13:43;13.40;99.90
53114;DHT22;39009;53.166;6.232;2022-07-23T00:16:08;13.50;99.90
53114;DHT22;39009;53.166;6.232;2022-07-23T00:18:34;13.50;99.90
53114;DHT22;39009;53.166;6.232;2022-07-23T00:21:00;13.40;99.90
53114;DHT22;39009;53.166;6.232;2022-07-23T00:23:25;13.40;99.90
53114;DHT22;39009;53.166;6.232;2022-07-23T00:25:52;13.40;99.90
53114;DHT22;39009;53.166;6.232;2022-07-23T00:28:18;13.30;99.90
53114;DHT22;39009;53.166;6.232;2022-07-23T00:30:44;13.40;99.90
53114;DHT22;39009;53.166;6.232;2022-07-23T00:33:09;13.40;99.90
53114;DHT22;39009;53.166;6.232;2022-07-23T00:35:36;13.40;99.90
53114;DHT22;39009;53.166;6.232;2022-07-23T00:38:02;13.40;99.90
53114;DHT22;39009;53.166;6.232;2022-07-23T00:40:30;13.30;99.90
53114;DHT22;39009;53.166;6.232;2022-07-23T00:42:59;13.30;99.90
53114;DHT22;39009;53.166;6.232;2022-07-23T00:45:25;13.20;99.90
53114;DHT22;39009;53.166;6.232;2022-07-23T00:47:50;13.20;99.90
53114;DHT22;39009;53.166;6.232;2022-07-23T00:50:16;13.10;99.90
53114;DHT22;39009;53.166;6.232;2022-07-23T00:52:41;13.10;99.90
53114;DHT22;39009;53.166;6.232;2022-07-23T00:55:08;13.10;99.90
53114;DHT22;39009;53.166;6.232;2022-07-23T00:57:34;13.00;99.90
53114;DHT22;39009;53.166;6.232;2022-07-23T00:59:59;13.00;99.90
53114;DHT22;39009;53.166;6.232;2022-07-23T01:02:25;13.00;99.90
53114;DHT22;39009;53.166;6.232;2022-07-23T01:04:51;12.90;99.90
53114;DHT22;39009;53.166;6.232;2022-07-23T01:07:17;12.90;99.90
53114;DHT22;39009;53.166;6.232;2022-07-23T01:09:44;12.80;99.90
53114;DHT22;39009;53.166;6.232;2022-07-23T01:12:10;12.70;99.90
53114;DHT22;39009;53.166;6.232;2022-07-23T01:14:35;12.70;99.90
53114;DHT22;39009;53.166;6.232;2022-07-23T01:17:01;12.60;99.90
53114;DHT22;39009;53.166;6.232;2022-07-23T01:19:27;12.60;99.90
53114;DHT22;39009;53.166;6.232;2022-07-23T01:21:52;12.50;99.90
53114;DHT22;39009;53.166;6.232;2022-07-23T01:24:18;12.60;99.90
53114;DHT22;39009;53.166;6.232;2022-07-23T01:26:45;12.60;99.90
53114;DHT22;39009;53.166;6.232;2022-07-23T01:29:12;12.60;99.90
53114;DHT22;39009;53.166;6.232;2022-07-23T01:31:38;12.50;99.90
53114;DHT22;39009;53.166;6.232;2022-07-23T01:34:03;12.50;99.90
53114;DHT22;39009;53.166;6.232;2022-07-23T01:36:29;12.50;99.90
53114;DHT22;39009;53.166;6.232;2022-07-23T01:38:55;12.50;99.90
53114;DHT22;39009;53.166;6.232;2022-07-23T01:41:21;12.50;99.90
53114;DHT22;39009;53.166;6.232;2022-07-23T01:43:46;12.50;99.90
53114;DHT22;39009;53.166;6.232;2022-07-23T01:46:12;12.40;99.90
53114;DHT22;39009;53.166;6.232;2022-07-23T01:48:37;12.40;99.90
53114;DHT22;39009;53.166;6.232;2022-07-23T01:51:03;12.30;99.90
53114;DHT22;39009;53.166;6.232;2022-07-23T01:53:29;12.30;99.90
53114;DHT22;39009;53.166;6.232;2022-07-23T01:55:56;12.40;99.90
53114;DHT22;39009;53.166;6.232;2022-07-23T01:58:22;12.30;99.90
53114;DHT22;39009;53.166;6.232;2022-07-23T02:00:48;12.30;99.90
53114;DHT22;39009;53.166;6.232;2022-07-23T02:03:13;12.30;99.90
53114;DHT22;39009;53.166;6.232;2022-07-23T02:05:39;12.30;99.90
53114;DHT22;39009;53.166;6.232;2022-07-23T02:08:07;12.20;99.90
53114;DHT22;39009;53.166;6.232;2022-07-23T02:10:33;12.20;99.90
53114;DHT22;39009;53.166;6.232;2022-07-23T02:12:58;12.10;99.90
53114;DHT22;39009;53.166;6.232;2022-07-23T02:15:24;12.10;99.90
53114;DHT22;39009;53.166;6.232;2022-07-23T02:17:50;12.10;99.90
53114;DHT22;39009;53.166;6.232;2022-07-23T02:20:15;12.10;99.90
53114;DHT22;39009;53.166;6.232;2022-07-23T02:22:41;12.10;99.90
53114;DHT22;39009;53.166;6.232;2022-07-23T02:25:07;12.10;99.90
53114;DHT22;39009;53.166;6.232;2022-07-23T02:27:33;12.10;99.90
53114;DHT22;39009;53.166;6.232;2022-07-23T02:29:59;12.10;99.90
53114;DHT22;39009;53.166;6.232;2022-07-23T02:32:24;12.20;99.90
53114;DHT22;39009;53.166;6.232;2022-07-23T02:34:53;12.10;99.90
53114;DHT22;39009;53.166;6.232;2022-07-23T02:37:18;12.10;99.90
53114;DHT22;39009;53.166;6.232;2022-07-23T02:39:44;12.10;99.90
53114;DHT22;39009;53.166;6.232;2022-07-23T02:42:09;12.10;99.90
53114;DHT22;39009;53.166;6.232;2022-07-23T02:44:35;12.00;99.90
53114;DHT22;39009;53.166;6.232;2022-07-23T02:47:01;12.00;99.90
53114;DHT22;39009;53.166;6.232;2022-07-23T02:49:26;12.00;99.90
53114;DHT22;39009;53.166;6.232;2022-07-23T02:51:52;11.90;99.90
53114;DHT22;39009;53.166;6.232;2022-07-23T02:54:18;11.90;99.90
53114;DHT22;39009;53.166;6.232;2022-07-23T02:56:43;11.80;99.90
53114;DHT22;39009;53.166;6.232;2022-07-23T02:59:09;11.80;99.90
53114;DHT22;39009;53.166;6.232;2022-07-23T03:01:35;11.80;99.90
53114;DHT22;39009;53.166;6.232;2022-07-23T03:04:00;11.80;99.90
53114;DHT22;39009;53.166;6.232;2022-07-23T03:06:26;11.80;99.90
53114;DHT22;39009;53.166;6.232;2022-07-23T03:08:51;11.80;99.90
53114;DHT22;39009;53.166;6.232;2022-07-23T03:11:17;11.80;99.90
53114;DHT22;39009;53.166;6.232;2022-07-23T03:13:42;11.80;99.90
53114;DHT22;39009;53.166;6.232;2022-07-23T03:16:08;11.80;99.90
53114;DHT22;39009;53.166;6.232;2022-07-23T03:18:34;11.70;99.90
53114;DHT22;39009;53.166;6.232;2022-07-23T03:20:59;11.70;99.90
53114;DHT22;39009;53.166;6.232;2022-07-23T03:23:25;11.60;99.90
53114;DHT22;39009;53.166;6.232;2022-07-23T03:25:50;11.60;99.90
53114;DHT22;39009;53.166;6.232;2022-07-23T03:28:16;11.70;99.90
53114;DHT22;39009;53.166;6.232;2022-07-23T03:30:42;11.70;99.90
53114;DHT22;39009;53.166;6.232;2022-07-23T03:33:08;11.70;99.90
53114;DHT22;39009;53.166;6.232;2022-07-23T03:35:33;11.70;99.90
53114;DHT22;39009;53.166;6.232;2022-07-23T03:37:59;11.70;99.90
53114;DHT22;39009;53.166;6.232;2022-07-23T03:40:25;11.80;99.90
53114;DHT22;39009;53.166;6.232;2022-07-23T03:42:50;11.80;99.90
53114;DHT22;39009;53.166;6.232;2022-07-23T03:45:16;11.80;99.90
53114;DHT22;39009;53.166;6.232;2022-07-23T03:47:41;11.80;99.90
53114;DHT22;39009;53.166;6.232;2022-07-23T03:50:08;11.80;99.90
53114;DHT22;39009;53.166;6.232;2022-07-23T03:52:34;11.80;99.90
53114;DHT22;39009;53.166;6.232;2022-07-23T03:54:59;11.80;99.90
53114;DHT22;39009;53.166;6.232;2022-07-23T03:57:25;11.70;99.90
53114;DHT22;39009;53.166;6.232;2022-07-23T03:59:54;11.80;99.90
53114;DHT22;39009;53.166;6.232;2022-07-23T04:02:19;11.70;99.90
53114;DHT22;39009;53.166;6.232;2022-07-23T04:04:45;11.70;99.90
53114;DHT22;39009;53.166;6.232;2022-07-23T04:07:16;11.70;99.90
53114;DHT22;39009;53.166;6.232;2022-07-23T04:09:43;11.70;99.90
53114;DHT22;39009;53.166;6.232;2022-07-23T04:12:09;11.80;99.90
53114;DHT22;39009;53.166;6.232;2022-07-23T04:14:34;11.80;99.90
53114;DHT22;39009;53.166;6.232;2022-07-23T04:17:03;11.80;99.90
53114;DHT22;39009;53.166;6.232;2022-07-23T04:19:31;11.80;99.90
53114;DHT22;39009;53.166;6.232;2022-07-23T04:21:57;11.90;99.90
53114;DHT22;39009;53.166;6.232;2022-07-23T04:24:23;11.80;99.90
53114;DHT22;39009;53.166;6.232;2022-07-23T04:26:48;11.80;99.90
53114;DHT22;39009;53.166;6.232;2022-07-23T04:29:14;11.90;99.90
53114;DHT22;39009;53.166;6.232;2022-07-23T04:31:39;12.00;99.90
53114;DHT22;39009;53.166;6.232;2022-07-23T04:34:05;12.00;99.90
53114;DHT22;39009;53.166;6.232;2022-07-23T04:36:30;12.10;99.90
53114;DHT22;39009;53.166;6.232;2022-07-23T04:38:56;12.10;99.90
53114;DHT22;39009;53.166;6.232;2022-07-23T04:41:22;12.20;99.90
53114;DHT22;39009;53.166;6.232;2022-07-23T04:43:47;12.20;99.90
53114;DHT22;39009;53.166;6.232;2022-07-23T04:46:13;12.20;99.90
53114;DHT22;39009;53.166;6.232;2022-07-23T04:48:39;12.30;99.90
53114;DHT22;39009;53.166;6.232;2022-07-23T04:51:04;12.30;99.90
53114;DHT22;39009;53.166;6.232;2022-07-23T04:53:30;12.30;99.90
53114;DHT22;39009;53.166;6.232;2022-07-23T04:55:55;12.30;99.90
53114;DHT22;39009;53.166;6.232;2022-07-23T04:58:21;12.50;99.90
53114;DHT22;39009;53.166;6.232;2022-07-23T05:00:47;12.60;99.90
53114;DHT22;39009;53.166;6.232;2022-07-23T05:03:13;12.80;99.90
53114;DHT22;39009;53.166;6.232;2022-07-23T05:05:38;12.90;99.90
53114;DHT22;39009;53.166;6.232;2022-07-23T05:08:04;13.10;99.90
53114;DHT22;39009;53.166;6.232;2022-07-23T05:10:29;13.10;99.90
53114;DHT22;39009;53.166;6.232;2022-07-23T05:12:55;13.20;99.90
53114;DHT22;39009;53.166;6.232;2022-07-23T05:15:23;13.20;99.90
53114;DHT22;39009;53.166;6.232;2022-07-23T05:17:49;13.40;99.90
53114;DHT22;39009;53.166;6.232;2022-07-23T05:20:14;13.60;99.90
53114;DHT22;39009;53.166;6.232;2022-07-23T05:22:40;13.80;99.90
53114;DHT22;39009;53.166;6.232;2022-07-23T05:25:06;14.00;99.90
53114;DHT22;39009;53.166;6.232;2022-07-23T05:27:31;14.20;99.90
53114;DHT22;39009;53.166;6.232;2022-07-23T05:29:57;14.30;99.90
53114;DHT22;39009;53.166;6.232;2022-07-23T05:32:23;14.50;99.90
53114;DHT22;39009;53.166;6.232;2022-07-23T05:34:48;14.80;99.90
53114;DHT22;39009;53.166;6.232;2022-07-23T05:37:14;15.10;99.90
53114;DHT22;39009;53.166;6.232;2022-07-23T05:39:39;15.40;99.90
53114;DHT22;39009;53.166;6.232;2022-07-23T05:42:05;15.60;99.90
53114;DHT22;39009;53.166;6.232;2022-07-23T05:44:30;15.80;99.90
53114;DHT22;39009;53.166;6.232;2022-07-23T05:46:56;15.90;99.90
53114;DHT22;39009;53.166;6.232;2022-07-23T05:49:21;15.90;99.90
53114;DHT22;39009;53.166;6.232;2022-07-23T05:51:47;16.00;99.90
53114;DHT22;39009;53.166;6.232;2022-07-23T05:54:13;16.00;99.90
53114;DHT22;39009;53.166;6.232;2022-07-23T05:56:38;16.10;99.90
53114;DHT22;39009;53.166;6.232;2022-07-23T05:59:04;16.20;99.90
53114;DHT22;39009;53.166;6.232;2022-07-23T06:01:29;16.20;99.90
53114;DHT22;39009;53.166;6.232;2022-07-23T06:03:55;16.30;99.90
53114;DHT22;39009;53.166;6.232;2022-07-23T06:06:20;16.30;99.90
53114;DHT22;39009;53.166;6.232;2022-07-23T06:08:46;16.30;99.90
53114;DHT22;39009;53.166;6.232;2022-07-23T06:11:11;16.40;99.90
53114;DHT22;39009;53.166;6.232;2022-07-23T06:13:37;16.30;99.90
53114;DHT22;39009;53.166;6.232;2022-07-23T06:16:03;16.30;99.90
53114;DHT22;39009;53.166;6.232;2022-07-23T06:18:28;16.20;99.90
53114;DHT22;39009;53.166;6.232;2022-07-23T06:20:54;16.30;99.90
53114;DHT22;39009;53.166;6.232;2022-07-23T06:23:20;16.60;99.90
53114;DHT22;39009;53.166;6.232;2022-07-23T06:25:45;16.80;99.90
53114;DHT22;39009;53.166;6.232;2022-07-23T06:28:11;17.00;99.90
53114;DHT22;39009;53.166;6.232;2022-07-23T06:30:36;17.30;99.90
53114;DHT22;39009;53.166;6.232;2022-07-23T06:33:02;17.40;99.90
53114;DHT22;39009;53.166;6.232;2022-07-23T06:35:28;17.40;99.90
53114;DHT22;39009;53.166;6.232;2022-07-23T06:37:53;17.30;99.90
53114;DHT22;39009;53.166;6.232;2022-07-23T06:40:19;17.30;99.90
53114;DHT22;39009;53.166;6.232;2022-07-23T06:42:45;17.30;99.90
53114;DHT22;39009;53.166;6.232;2022-07-23T06:45:11;17.40;99.90
53114;DHT22;39009;53.166;6.232;2022-07-23T06:47:36;17.70;99.90
53114;DHT22;39009;53.166;6.232;2022-07-23T06:50:02;18.00;99.90
53114;DHT22;39009;53.166;6.232;2022-07-23T06:52:28;18.10;99.90
53114;DHT22;39009;53.166;6.232;2022-07-23T06:54:54;18.30;99.90
53114;DHT22;39009;53.166;6.232;2022-07-23T06:57:20;18.80;99.90
53114;DHT22;39009;53.166;6.232;2022-07-23T06:59:45;19.10;99.90
53114;DHT22;39009;53.166;6.232;2022-07-23T07:02:11;19.50;99.90
53114;DHT22;39009;53.166;6.232;2022-07-23T07:04:36;19.80;99.90
53114;DHT22;39009;53.166;6.232;2022-07-23T07:07:02;20.00;99.90
53114;DHT22;39009;53.166;6.232;2022-07-23T07:09:28;20.30;99.90
53114;DHT22;39009;53.166;6.232;2022-07-23T07:11:53;20.50;99.90
53114;DHT22;39009;53.166;6.232;2022-07-23T07:14:19;20.60;99.90
53114;DHT22;39009;53.166;6.232;2022-07-23T07:16:44;21.00;99.90
53114;DHT22;39009;53.166;6.232;2022-07-23T07:19:10;21.20;99.90
53114;DHT22;39009;53.166;6.232;2022-07-23T07:21:35;21.40;99.90
53114;DHT22;39009;53.166;6.232;2022-07-23T07:24:01;21.40;99.90
53114;DHT22;39009;53.166;6.232;2022-07-23T07:26:27;21.50;99.90
53114;DHT22;39009;53.166;6.232;2022-07-23T07:28:53;21.70;99.90
53114;DHT22;39009;53.166;6.232;2022-07-23T07:31:18;21.80;99.90
53114;DHT22;39009;53.166;6.232;2022-07-23T07:33:44;22.10;99.90
53114;DHT22;39009;53.166;6.232;2022-07-23T07:36:11;22.30;99.90
53114;DHT22;39009;53.166;6.232;2022-07-23T07:38:37;22.30;99.90
53114;DHT22;39009;53.166;6.232;2022-07-23T07:41:02;22.40;99.90
53114;DHT22;39009;53.166;6.232;2022-07-23T07:43:28;22.60;99.90
53114;DHT22;39009;53.166;6.232;2022-07-23T07:45:53;22.80;99.90
53114;DHT22;39009;53.166;6.232;2022-07-23T07:48:19;22.80;99.90
53114;DHT22;39009;53.166;6.232;2022-07-23T07:50:44;22.60;99.90
53114;DHT22;39009;53.166;6.232;2022-07-23T07:53:10;22.10;99.90
53114;DHT22;39009;53.166;6.232;2022-07-23T07:55:35;21.70;99.90
53114;DHT22;39009;53.166;6.232;2022-07-23T07:58:01;21.40;99.90
53114;DHT22;39009;53.166;6.232;2022-07-23T08:00:27;21.40;99.90
53114;DHT22;39009;53.166;6.232;2022-07-23T08:02:53;21.50;99.90
53114;DHT22;39009;53.166;6.232;2022-07-23T08:05:20;22.00;99.90
53114;DHT22;39009;53.166;6.232;2022-07-23T08:07:46;22.30;99.90
53114;DHT22;39009;53.166;6.232;2022-07-23T08:10:11;22.80;99.90
53114;DHT22;39009;53.166;6.232;2022-07-23T08:12:41;23.10;99.90
53114;DHT22;39009;53.166;6.232;2022-07-23T08:15:07;23.30;99.90
53114;DHT22;39009;53.166;6.232;2022-07-23T08:17:33;23.60;99.90
53114;DHT22;39009;53.166;6.232;2022-07-23T08:19:58;23.60;99.90
53114;DHT22;39009;53.166;6.232;2022-07-23T08:22:24;23.30;99.90
53114;DHT22;39009;53.166;6.232;2022-07-23T08:24:49;23.10;99.90
53114;DHT22;39009;53.166;6.232;2022-07-23T08:27:15;22.70;99.90
53114;DHT22;39009;53.166;6.232;2022-07-23T08:29:40;22.30;99.90
53114;DHT22;39009;53.166;6.232;2022-07-23T08:32:06;22.10;99.90
53114;DHT22;39009;53.166;6.232;2022-07-23T08:34:31;22.00;99.90
53114;DHT22;39009;53.166;6.232;2022-07-23T08:36:57;21.90;99.90
53114;DHT22;39009;53.166;6.232;2022-07-23T08:39:22;21.70;99.90
53114;DHT22;39009;53.166;6.232;2022-07-23T08:41:48;21.50;99.90
53114;DHT22;39009;53.166;6.232;2022-07-23T08:44:15;21.30;99.90
53114;DHT22;39009;53.166;6.232;2022-07-23T08:46:41;21.10;99.90
53114;DHT22;39009;53.166;6.232;2022-07-23T08:49:07;21.00;99.90
53114;DHT22;39009;53.166;6.232;2022-07-23T08:51:33;21.00;99.90
53114;DHT22;39009;53.166;6.232;2022-07-23T08:53:59;21.00;99.90
53114;DHT22;39009;53.166;6.232;2022-07-23T08:56:25;21.10;99.90
53114;DHT22;39009;53.166;6.232;2022-07-23T08:58:53;21.10;99.90
53114;DHT22;39009;53.166;6.232;2022-07-23T09:01:18;21.10;99.90
53114;DHT22;39009;53.166;6.232;2022-07-23T09:03:44;21.10;99.90
53114;DHT22;39009;53.166;6.232;2022-07-23T09:06:10;21.10;99.90
53114;DHT22;39009;53.166;6.232;2022-07-23T09:08:37;21.10;99.90
53114;DHT22;39009;53.166;6.232;2022-07-23T09:11:03;21.10;99.90
53114;DHT22;39009;53.166;6.232;2022-07-23T09:13:36;21.10;99.90
53114;DHT22;39009;53.166;6.232;2022-07-23T09:16:06;21.00;99.90
53114;DHT22;39009;53.166;6.232;2022-07-23T09:18:34;21.00;99.90
53114;DHT22;39009;53.166;6.232;2022-07-23T09:23:36;21.10;99.90
53114;DHT22;39009;53.166;6.232;2022-07-23T09:26:02;21.20;99.90
53114;DHT22;39009;53.166;6.232;2022-07-23T09:28:27;21.10;99.90
53114;DHT22;39009;53.166;6.232;2022-07-23T09:30:53;21.00;99.90
53114;DHT22;39009;53.166;6.232;2022-07-23T09:33:18;21.00;99.90
53114;DHT22;39009;53.166;6.232;2022-07-23T09:35:46;21.00;99.90
53114;DHT22;39009;53.166;6.232;2022-07-23T09:38:13;21.00;99.90
53114;DHT22;39009;53.166;6.232;2022-07-23T09:40:39;21.00;99.90
53114;DHT22;39009;53.166;6.232;2022-07-23T09:43:04;21.10;99.90
53114;DHT22;39009;53.166;6.232;2022-07-23T09:45:30;21.20;99.90
53114;DHT22;39009;53.166;6.232;2022-07-23T09:48:14;21.20;99.90
53114;DHT22;39009;53.166;6.232;2022-07-23T09:50:41;21.30;99.90
53114;DHT22;39009;53.166;6.232;2022-07-23T09:53:06;21.40;99.90
53114;DHT22;39009;53.166;6.232;2022-07-23T09:55:33;21.40;99.90
53114;DHT22;39009;53.166;6.232;2022-07-23T09:58:06;21.60;99.90
53114;DHT22;39009;53.166;6.232;2022-07-23T10:00:34;21.80;99.90
53114;DHT22;39009;53.166;6.232;2022-07-23T10:03:00;22.00;99.90
53114;DHT22;39009;53.166;6.232;2022-07-23T10:05:26;22.20;99.90
53114;DHT22;39009;53.166;6.232;2022-07-23T10:07:52;22.30;99.90
53114;DHT22;39009;53.166;6.232;2022-07-23T10:10:18;22.20;99.90
53114;DHT22;39009;53.166;6.232;2022-07-23T10:12:44;22.10;99.90
53114;DHT22;39009;53.166;6.232;2022-07-23T10:15:10;22.10;99.90
53114;DHT22;39009;53.166;6.232;2022-07-23T10:17:36;22.00;99.90
53114;DHT22;39009;53.166;6.232;2022-07-23T10:20:02;22.00;99.90
53114;DHT22;39009;53.166;6.232;2022-07-23T10:22:29;22.00;99.90
53114;DHT22;39009;53.166;6.232;2022-07-23T10:32:50;21.90;99.90
53114;DHT22;39009;53.166;6.232;2022-07-23T10:37:44;22.00;99.90
53114;DHT22;39009;53.166;6.232;2022-07-23T10:40:13;22.10;99.90
53114;DHT22;39009;53.166;6.232;2022-07-23T10:42:39;22.10;99.90
53114;DHT22;39009;53.166;6.232;2022-07-23T10:45:21;22.00;99.90
53114;DHT22;39009;53.166;6.232;2022-07-23T10:47:47;22.00;99.90
53114;DHT22;39009;53.166;6.232;2022-07-23T10:50:21;22.00;99.90
53114;DHT22;39009;53.166;6.232;2022-07-23T10:53:15;21.90;99.90
53114;DHT22;39009;53.166;6.232;2022-07-23T10:57:58;21.70;99.90
53114;DHT22;39009;53.166;6.232;2022-07-23T11:00:25;21.60;99.90
53114;DHT22;39009;53.166;6.232;2022-07-23T11:02:53;21.60;99.90
53114;DHT22;39009;53.166;6.232;2022-07-23T11:05:20;21.50;99.90
53114;DHT22;39009;53.166;6.232;2022-07-23T11:10:35;21.90;99.90
53114;DHT22;39009;53.166;6.232;2022-07-23T11:29:37;24.10;99.90
53114;DHT22;39009;53.166;6.232;2022-07-23T11:32:05;24.10;99.90
53114;DHT22;39009;53.166;6.232;2022-07-23T11:34:35;24.10;99.90
53114;DHT22;39009;53.166;6.232;2022-07-23T11:37:05;24.00;99.90
53114;DHT22;39009;53.166;6.232;2022-07-23T11:39:31;23.90;99.90
53114;DHT22;39009;53.166;6.232;2022-07-23T11:41:57;23.90;99.90
53114;DHT22;39009;53.166;6.232;2022-07-23T11:44:24;24.40;99.90
53114;DHT22;39009;53.166;6.232;2022-07-23T11:46:54;24.50;99.90
53114;DHT22;39009;53.166;6.232;2022-07-23T11:49:20;24.60;99.90
53114;DHT22;39009;53.166;6.232;2022-07-23T11:51:46;24.60;99.90
53114;DHT22;39009;53.166;6.232;2022-07-23T11:54:11;24.60;99.90
53114;DHT22;39009;53.166;6.232;2022-07-23T11:56:37;24.60;99.90
53114;DHT22;39009;53.166;6.232;2022-07-23T11:59:02;25.10;99.90
53114;DHT22;39009;53.166;6.232;2022-07-23T12:01:28;25.80;99.90
53114;DHT22;39009;53.166;6.232;2022-07-23T12:03:54;26.00;99.90
53114;DHT22;39009;53.166;6.232;2022-07-23T12:06:19;26.10;99.90
53114;DHT22;39009;53.166;6.232;2022-07-23T12:08:45;26.50;99.90
53114;DHT22;39009;53.166;6.232;2022-07-23T12:11:11;26.50;99.80
53114;DHT22;39009;53.166;6.232;2022-07-23T12:13:37;26.20;99.90
53114;DHT22;39009;53.166;6.232;2022-07-23T12:16:02;26.40;99.90
53114;DHT22;39009;53.166;6.232;2022-07-23T12:18:30;26.70;99.90
53114;DHT22;39009;53.166;6.232;2022-07-23T12:20:56;27.00;99.90
53114;DHT22;39009;53.166;6.232;2022-07-23T12:23:22;27.50;99.40
53114;DHT22;39009;53.166;6.232;2022-07-23T12:25:49;27.40;98.20
53114;DHT22;39009;53.166;6.232;2022-07-23T12:28:17;27.50;97.90
53114;DHT22;39009;53.166;6.232;2022-07-23T12:30:44;27.00;97.40
53114;DHT22;39009;53.166;6.232;2022-07-23T12:33:11;26.60;99.50
53114;DHT22;39009;53.166;6.232;2022-07-23T12:35:37;26.70;98.40
53114;DHT22;39009;53.166;6.232;2022-07-23T12:38:07;27.10;98.80
53114;DHT22;39009;53.166;6.232;2022-07-23T12:40:35;27.30;97.60
53114;DHT22;39009;53.166;6.232;2022-07-23T12:43:03;27.20;95.80
53114;DHT22;39009;53.166;6.232;2022-07-23T12:45:41;27.10;96.90
53114;DHT22;39009;53.166;6.232;2022-07-23T12:48:07;27.10;96.60
53114;DHT22;39009;53.166;6.232;2022-07-23T12:53:03;27.20;96.70
53114;DHT22;39009;53.166;6.232;2022-07-23T12:55:29;27.10;99.20
53114;DHT22;39009;53.166;6.232;2022-07-23T12:58:02;26.90;97.50
53114;DHT22;39009;53.166;6.232;2022-07-23T13:00:27;26.70;96.60
53114;DHT22;39009;53.166;6.232;2022-07-23T13:02:53;26.80;97.50
53114;DHT22;39009;53.166;6.232;2022-07-23T13:05:18;27.10;97.20
53114;DHT22;39009;53.166;6.232;2022-07-23T13:07:44;26.80;97.50
53114;DHT22;39009;53.166;6.232;2022-07-23T13:10:09;26.40;95.30
53114;DHT22;39009;53.166;6.232;2022-07-23T13:12:37;26.00;96.30
53114;DHT22;39009;53.166;6.232;2022-07-23T13:15:03;25.80;96.50
53114;DHT22;39009;53.166;6.232;2022-07-23T13:17:28;25.80;96.70
53114;DHT22;39009;53.166;6.232;2022-07-23T13:19:54;26.00;97.20
53114;DHT22;39009;53.166;6.232;2022-07-23T13:22:19;25.70;96.10
53114;DHT22;39009;53.166;6.232;2022-07-23T13:24:45;25.40;97.30
53114;DHT22;39009;53.166;6.232;2022-07-23T13:27:10;25.30;97.70
53114;DHT22;39009;53.166;6.232;2022-07-23T13:29:36;25.10;98.00
53114;DHT22;39009;53.166;6.232;2022-07-23T13:32:02;25.10;98.60
53114;DHT22;39009;53.166;6.232;2022-07-23T13:34:27;25.00;98.00
53114;DHT22;39009;53.166;6.232;2022-07-23T13:36:53;25.20;98.90
53114;DHT22;39009;53.166;6.232;2022-07-23T13:39:19;25.20;98.10
53114;DHT22;39009;53.166;6.232;2022-07-23T13:41:44;25.20;98.30
53114;DHT22;39009;53.166;6.232;2022-07-23T13:44:10;25.30;99.50
53114;DHT22;39009;53.166;6.232;2022-07-23T13:46:35;25.30;98.70
53114;DHT22;39009;53.166;6.232;2022-07-23T13:49:01;25.80;99.30
53114;DHT22;39009;53.166;6.232;2022-07-23T13:51:27;26.00;97.80
53114;DHT22;39009;53.166;6.232;2022-07-23T13:53:53;26.30;97.80
53114;DHT22;39009;53.166;6.232;2022-07-23T13:56:19;26.20;97.60
53114;DHT22;39009;53.166;6.232;2022-07-23T13:58:45;26.00;97.40
53114;DHT22;39009;53.166;6.232;2022-07-23T14:01:11;25.90;97.70
53114;DHT22;39009;53.166;6.232;2022-07-23T14:03:36;26.00;97.10
53114;DHT22;39009;53.166;6.232;2022-07-23T14:06:02;26.40;97.60
53114;DHT22;39009;53.166;6.232;2022-07-23T14:08:27;26.60;97.70
53114;DHT22;39009;53.166;6.232;2022-07-23T14:10:53;26.60;96.40
53114;DHT22;39009;53.166;6.232;2022-07-23T14:13:19;26.40;95.90
53114;DHT22;39009;53.166;6.232;2022-07-23T14:15:44;26.30;96.30
53114;DHT22;39009;53.166;6.232;2022-07-23T14:18:10;26.30;95.20
53114;DHT22;39009;53.166;6.232;2022-07-23T14:20:35;26.40;95.00
53114;DHT22;39009;53.166;6.232;2022-07-23T14:23:01;26.40;95.40
53114;DHT22;39009;53.166;6.232;2022-07-23T14:25:27;26.00;96.30
53114;DHT22;39009;53.166;6.232;2022-07-23T14:27:53;26.00;96.80
53114;DHT22;39009;53.166;6.232;2022-07-23T14:30:18;26.10;95.80
53114;DHT22;39009;53.166;6.232;2022-07-23T14:32:44;26.40;95.80
53114;DHT22;39009;53.166;6.232;2022-07-23T14:35:09;26.60;96.10
53114;DHT22;39009;53.166;6.232;2022-07-23T14:37:35;26.50;96.10
53114;DHT22;39009;53.166;6.232;2022-07-23T14:40:01;26.50;96.80
53114;DHT22;39009;53.166;6.232;2022-07-23T14:42:27;26.40;95.40
53114;DHT22;39009;53.166;6.232;2022-07-23T14:44:52;26.40;96.90
53114;DHT22;39009;53.166;6.232;2022-07-23T14:47:18;26.50;96.30
53114;DHT22;39009;53.166;6.232;2022-07-23T14:49:43;26.40;96.60
53114;DHT22;39009;53.166;6.232;2022-07-23T14:52:09;26.20;95.80
53114;DHT22;39009;53.166;6.232;2022-07-23T14:54:34;26.00;96.10
53114;DHT22;39009;53.166;6.232;2022-07-23T14:57:00;25.90;96.40
53114;DHT22;39009;53.166;6.232;2022-07-23T14:59:27;26.00;96.60
53114;DHT22;39009;53.166;6.232;2022-07-23T15:01:53;25.90;96.10
53114;DHT22;39009;53.166;6.232;2022-07-23T15:04:20;25.80;95.80
53114;DHT22;39009;53.166;6.232;2022-07-23T15:06:45;25.70;95.10
53114;DHT22;39009;53.166;6.232;2022-07-23T15:09:11;25.40;95.90
53114;DHT22;39009;53.166;6.232;2022-07-23T15:11:36;24.80;96.10
53114;DHT22;39009;53.166;6.232;2022-07-23T15:14:03;24.60;96.60
53114;DHT22;39009;53.166;6.232;2022-07-23T15:16:29;24.70;97.20
53114;DHT22;39009;53.166;6.232;2022-07-23T15:18:55;25.00;97.80
53114;DHT22;39009;53.166;6.232;2022-07-23T15:21:20;25.10;97.50
53114;DHT22;39009;53.166;6.232;2022-07-23T15:23:46;25.20;97.20
53114;DHT22;39009;53.166;6.232;2022-07-23T15:26:12;25.30;96.20
53114;DHT22;39009;53.166;6.232;2022-07-23T15:28:39;25.00;96.00
53114;DHT22;39009;53.166;6.232;2022-07-23T15:31:05;24.90;97.00
53114;DHT22;39009;53.166;6.232;2022-07-23T15:33:31;24.80;96.30
53114;DHT22;39009;53.166;6.232;2022-07-23T15:35:56;24.80;96.90
53114;DHT22;39009;53.166;6.232;2022-07-23T15:38:23;25.00;97.60
53114;DHT22;39009;53.166;6.232;2022-07-23T15:40:49;24.90;96.40
53114;DHT22;39009;53.166;6.232;2022-07-23T15:43:15;24.90;97.00
53114;DHT22;39009;53.166;6.232;2022-07-23T15:45:40;24.70;95.70
53114;DHT22;39009;53.166;6.232;2022-07-23T15:48:06;24.70;97.30
53114;DHT22;39009;53.166;6.232;2022-07-23T15:50:32;24.40;96.70
53114;DHT22;39009;53.166;6.232;2022-07-23T15:52:57;24.30;97.00
53114;DHT22;39009;53.166;6.232;2022-07-23T15:55:23;24.20;97.20
53114;DHT22;39009;53.166;6.232;2022-07-23T15:57:49;24.00;97.30
53114;DHT22;39009;53.166;6.232;2022-07-23T16:00:14;24.00;97.80